Time;durP1;ratioP1;P1;durP2;ratioP2;P2;SDS_P1;SDS_P2;PMS_P1;PMS_P2;Temp;Humidity;BMP_temperature;BMP_pressure;BME280_temperature;BME280_humidity;BME280_pressure;Samples;Min_cycle;Max_cycle;Signal;HPM_P1;HPM_P2
2021/11/29 00:02:01;;;;;;;13.73;7.72;;;;;;;;;;5015873;28;20034;-82
2021/11/29 00:04:27;;;;;;;14.30;7.47;;;;;;;;;;5007579;28;20032;-82
2021/11/29 00:06:53;;;;;;;12.35;7.28;;;;;;;;;;5010084;28;20030;-80
2021/11/29 00:09:19;;;;;;;13.20;7.68;;;;;;;;;;5013237;28;20031;-80
2021/11/29 00:11:45;;;;;;;13.70;7.60;;;;;;;;;;4997885;28;20034;-80
2021/11/29 00:14:11;;;;;;;13.95;7.22;;;;;;;;;;4997230;28;20018;-81
2021/11/29 00:16:37;;;;;;;12.45;7.32;;;;;;;;;;4997628;28;20069;-80
2021/11/29 00:19:04;;;;;;;16.33;7.43;;;;;;;;;;4998337;28;20835;-81
2021/11/29 00:21:31;;;;;;;12.20;7.75;;;;;;;;;;4998384;28;20054;-82
2021/11/29 00:23:57;;;;;;;15.20;7.78;;;;;;;;;;5017091;28;20038;-82
2021/11/29 00:26:23;;;;;;;11.05;7.15;;;;;;;;;;5017278;28;20101;-80
2021/11/29 00:28:49;;;;;;;13.73;7.38;;;;;;;;;;5015599;28;20026;-80
2021/11/29 00:31:15;;;;;;;14.88;8.35;;;;;;;;;;5003948;28;20026;-80
2021/11/29 00:33:41;;;;;;;14.40;7.80;;;;;;;;;;5015533;28;20030;-81
2021/11/29 00:36:07;;;;;;;14.43;7.53;;;;;;;;;;5011699;28;20056;-80
2021/11/29 00:38:33;;;;;;;14.35;9.15;;;;;;;;;;5017490;28;20121;-81
2021/11/29 00:41:00;;;;;;;14.30;8.20;;;;;;;;;;4980961;28;20031;-80
2021/11/29 00:43:26;;;;;;;16.30;9.63;;;;;;;;;;4976679;28;20023;-80
2021/11/29 00:45:52;;;;;;;17.88;10.25;;;;;;;;;;4978476;28;20105;-80
2021/11/29 00:48:18;;;;;;;17.77;8.98;;;;;;;;;;4983748;28;20038;-81
2021/11/29 00:50:44;;;;;;;14.93;9.30;;;;;;;;;;5010798;28;20029;-81
2021/11/29 00:53:12;;;;;;;15.13;8.48;;;;;;;;;;5016695;28;20042;-81
2021/11/29 00:55:39;;;;;;;15.13;10.27;;;;;;;;;;5014717;28;20030;-81
2021/11/29 00:58:06;;;;;;;16.40;8.68;;;;;;;;;;5017222;28;20029;-81
2021/11/29 01:00:32;;;;;;;15.95;9.52;;;;;;;;;;5013444;28;20061;-81
2021/11/29 01:02:59;;;;;;;15.38;9.00;;;;;;;;;;5015672;28;20484;-81
2021/11/29 01:05:25;;;;;;;17.73;9.40;;;;;;;;;;4996074;28;20489;-81
2021/11/29 01:07:51;;;;;;;16.92;8.98;;;;;;;;;;5013496;28;20040;-80
2021/11/29 01:10:18;;;;;;;14.13;8.57;;;;;;;;;;5005723;28;20034;-80
2021/11/29 01:12:45;;;;;;;14.75;8.18;;;;;;;;;;5003008;28;20034;-80
2021/11/29 01:15:13;;;;;;;16.00;9.50;;;;;;;;;;5021463;28;20030;-79
2021/11/29 01:17:39;;;;;;;18.05;9.32;;;;;;;;;;5021206;28;20332;-80
2021/11/29 01:20:06;;;;;;;13.88;8.57;;;;;;;;;;5011726;28;20068;-82
2021/11/29 01:22:32;;;;;;;16.88;9.20;;;;;;;;;;4999028;28;20104;-81
2021/11/29 01:24:58;;;;;;;17.35;9.48;;;;;;;;;;5015766;28;20116;-81
2021/11/29 01:27:25;;;;;;;16.58;8.90;;;;;;;;;;5006398;28;20376;-81
2021/11/29 01:29:51;;;;;;;15.38;8.52;;;;;;;;;;5005160;28;20033;-81
2021/11/29 01:32:17;;;;;;;15.68;8.75;;;;;;;;;;5007119;28;20058;-81
2021/11/29 01:34:43;;;;;;;16.38;9.48;;;;;;;;;;5005296;28;20027;-82
2021/11/29 01:37:09;;;;;;;15.95;8.70;;;;;;;;;;4998507;28;20477;-81
2021/11/29 01:39:35;;;;;;;15.30;9.48;;;;;;;;;;5011356;28;20026;-81
2021/11/29 01:42:01;;;;;;;14.77;8.77;;;;;;;;;;4997298;28;20030;-82
2021/11/29 01:44:27;;;;;;;15.40;9.27;;;;;;;;;;4998236;28;20034;-81
2021/11/29 01:46:53;;;;;;;16.75;9.88;;;;;;;;;;5011536;28;20036;-82
2021/11/29 01:49:19;;;;;;;15.60;9.23;;;;;;;;;;5007784;28;20022;-82
2021/11/29 01:51:46;;;;;;;16.70;9.77;;;;;;;;;;4998560;28;20045;-81
2021/11/29 01:54:12;;;;;;;17.85;9.73;;;;;;;;;;5005707;28;20026;-79
2021/11/29 01:56:39;;;;;;;14.35;7.95;;;;;;;;;;4999577;28;20023;-81
2021/11/29 01:59:05;;;;;;;16.63;8.75;;;;;;;;;;5001552;28;20030;-81
2021/11/29 02:01:32;;;;;;;18.08;9.23;;;;;;;;;;5003608;28;20578;-81
2021/11/29 02:03:59;;;;;;;13.45;8.68;;;;;;;;;;5010479;28;20057;-81
2021/11/29 02:06:26;;;;;;;17.13;9.00;;;;;;;;;;5019005;28;20486;-81
2021/11/29 02:08:53;;;;;;;13.77;9.13;;;;;;;;;;5019073;28;20475;-81
2021/11/29 02:11:19;;;;;;;16.90;8.65;;;;;;;;;;5019789;28;20060;-81
2021/11/29 02:13:45;;;;;;;16.30;8.93;;;;;;;;;;5019608;28;20022;-81
2021/11/29 02:16:11;;;;;;;17.42;9.20;;;;;;;;;;5017596;28;20551;-80
2021/11/29 02:18:40;;;;;;;15.05;9.05;;;;;;;;;;5018413;28;20471;-81
2021/11/29 02:21:13;;;;;;;14.90;8.13;;;;;;;;;;5016944;28;20084;-80
2021/11/29 02:23:43;;;;;;;15.75;8.13;;;;;;;;;;5007676;28;20018;-82
2021/11/29 02:26:10;;;;;;;14.85;7.88;;;;;;;;;;5019129;28;20022;-80
2021/11/29 02:28:37;;;;;;;15.75;8.43;;;;;;;;;;5001911;28;20026;-81
2021/11/29 02:31:07;;;;;;;14.05;8.40;;;;;;;;;;5002774;28;20382;-81
2021/11/29 02:33:33;;;;;;;13.63;7.70;;;;;;;;;;5003409;28;20049;-80
2021/11/29 02:35:59;;;;;;;15.68;8.50;;;;;;;;;;5012393;28;20037;-81
2021/11/29 02:38:25;;;;;;;14.52;8.57;;;;;;;;;;5000574;28;20018;-80
2021/11/29 02:40:51;;;;;;;13.95;7.25;;;;;;;;;;5014606;28;20449;-81
2021/11/29 02:43:17;;;;;;;14.45;8.05;;;;;;;;;;5015398;28;20061;-81
2021/11/29 02:45:43;;;;;;;13.60;7.68;;;;;;;;;;5006897;28;20022;-80
2021/11/29 02:48:09;;;;;;;15.45;8.35;;;;;;;;;;5002601;28;20073;-81
2021/11/29 02:50:36;;;;;;;12.85;8.57;;;;;;;;;;5006414;28;20117;-80
2021/11/29 02:53:02;;;;;;;13.43;7.20;;;;;;;;;;5008151;28;20048;-81
2021/11/29 02:55:28;;;;;;;15.57;8.75;;;;;;;;;;5014955;28;20026;-82
2021/11/29 02:57:54;;;;;;;13.15;7.90;;;;;;;;;;5015022;28;20084;-80
2021/11/29 03:00:20;;;;;;;13.57;8.25;;;;;;;;;;5006940;28;20026;-82
2021/11/29 03:03:01;;;;;;;13.98;8.00;;;;;;;;;;5004869;28;20496;-81
2021/11/29 03:05:27;;;;;;;12.70;8.65;;;;;;;;;;4998617;28;20536;-81
2021/11/29 03:07:53;;;;;;;13.23;6.47;;;;;;;;;;5015766;28;20044;-81
2021/11/29 03:10:19;;;;;;;12.15;7.60;;;;;;;;;;5017932;28;20038;-80
2021/11/29 03:12:45;;;;;;;13.80;7.10;;;;;;;;;;5023814;28;20034;-81
2021/11/29 03:15:11;;;;;;;12.20;7.53;;;;;;;;;;5021187;28;20076;-81
2021/11/29 03:17:37;;;;;;;13.77;8.13;;;;;;;;;;5020308;28;20542;-80
2021/11/29 03:20:04;;;;;;;14.13;7.90;;;;;;;;;;5004353;28;20722;-82
2021/11/29 03:22:30;;;;;;;14.00;8.15;;;;;;;;;;4996816;28;20029;-79
2021/11/29 03:24:56;;;;;;;12.73;6.82;;;;;;;;;;4998439;28;20491;-79
2021/11/29 03:27:22;;;;;;;12.93;7.85;;;;;;;;;;4997622;28;20034;-81
2021/11/29 03:29:49;;;;;;;13.45;8.02;;;;;;;;;;4997899;28;20085;-81
2021/11/29 03:32:17;;;;;;;14.57;8.05;;;;;;;;;;4996030;28;20027;-81
2021/11/29 03:34:43;;;;;;;14.93;8.50;;;;;;;;;;5010490;28;20056;-81
2021/11/29 03:37:09;;;;;;;14.05;7.72;;;;;;;;;;5002167;28;20022;-81
2021/11/29 03:39:36;;;;;;;14.38;8.45;;;;;;;;;;4999168;28;20881;-79
2021/11/29 03:42:05;;;;;;;14.02;8.38;;;;;;;;;;5003957;28;20030;-80
2021/11/29 03:44:31;;;;;;;11.90;7.63;;;;;;;;;;5003706;28;20026;-80
2021/11/29 03:46:57;;;;;;;13.35;7.93;;;;;;;;;;5009596;28;20041;-81
2021/11/29 03:49:24;;;;;;;13.55;7.47;;;;;;;;;;5010258;28;20049;-80
2021/11/29 03:51:50;;;;;;;13.00;7.85;;;;;;;;;;5004764;28;20546;-80
2021/11/29 03:54:16;;;;;;;13.20;7.43;;;;;;;;;;4993561;28;20061;-80
2021/11/29 03:56:42;;;;;;;11.80;7.32;;;;;;;;;;5010703;28;20053;-80
2021/11/29 03:59:08;;;;;;;13.02;6.38;;;;;;;;;;5006399;28;20408;-80
2021/11/29 04:01:35;;;;;;;13.23;7.20;;;;;;;;;;5005670;28;20102;-81
2021/11/29 04:04:02;;;;;;;12.70;7.15;;;;;;;;;;5000342;28;20026;-82
2021/11/29 04:06:28;;;;;;;14.05;7.68;;;;;;;;;;5006454;28;20034;-80
2021/11/29 04:08:54;;;;;;;12.35;6.50;;;;;;;;;;4997471;28;20026;-81
2021/11/29 04:11:20;;;;;;;12.65;7.47;;;;;;;;;;4996017;28;20416;-79
2021/11/29 04:13:47;;;;;;;12.65;7.32;;;;;;;;;;4997220;28;20018;-81
2021/11/29 04:16:15;;;;;;;13.18;7.60;;;;;;;;;;4994127;28;20057;-82
2021/11/29 04:18:41;;;;;;;10.10;6.32;;;;;;;;;;4995115;28;20061;-81
2021/11/29 04:21:07;;;;;;;13.43;7.00;;;;;;;;;;4995616;28;20469;-80
2021/11/29 04:23:34;;;;;;;11.68;7.72;;;;;;;;;;4994085;28;20026;-80
2021/11/29 04:26:01;;;;;;;11.95;6.32;;;;;;;;;;4995297;28;20028;-81
2021/11/29 04:28:28;;;;;;;11.52;6.53;;;;;;;;;;4995079;28;20436;-81
2021/11/29 04:30:54;;;;;;;11.60;6.45;;;;;;;;;;4994961;28;20030;-81
2021/11/29 04:33:20;;;;;;;11.70;6.35;;;;;;;;;;4993342;28;20049;-80
2021/11/29 04:35:46;;;;;;;11.93;6.90;;;;;;;;;;4998841;28;20026;-80
2021/11/29 04:38:12;;;;;;;12.20;6.25;;;;;;;;;;5003209;28;20038;-81
2021/11/29 04:40:38;;;;;;;10.63;6.43;;;;;;;;;;5001917;28;20027;-80
2021/11/29 04:43:04;;;;;;;13.77;6.57;;;;;;;;;;5008008;28;20060;-81
2021/11/29 04:45:31;;;;;;;13.00;7.13;;;;;;;;;;5004144;28;20184;-79
2021/11/29 04:47:57;;;;;;;12.15;6.65;;;;;;;;;;5000783;28;20029;-80
2021/11/29 04:50:23;;;;;;;11.15;6.15;;;;;;;;;;5013607;28;20030;-79
2021/11/29 04:52:49;;;;;;;10.75;5.75;;;;;;;;;;5002203;28;20066;-80
2021/11/29 04:55:15;;;;;;;12.60;6.72;;;;;;;;;;4995883;28;20026;-80
2021/11/29 04:57:43;;;;;;;11.85;6.30;;;;;;;;;;4994897;28;20023;-80
2021/11/29 05:00:12;;;;;;;9.73;6.05;;;;;;;;;;4988551;28;20026;-80
2021/11/29 05:02:38;;;;;;;11.23;6.65;;;;;;;;;;4994894;28;20042;-79
2021/11/29 05:05:04;;;;;;;12.15;6.45;;;;;;;;;;4993797;28;20084;-79
2021/11/29 05:07:30;;;;;;;11.52;5.97;;;;;;;;;;4994262;28;20030;-81
2021/11/29 05:09:56;;;;;;;10.85;6.30;;;;;;;;;;5004491;28;20026;-81
2021/11/29 05:12:23;;;;;;;10.30;6.15;;;;;;;;;;5004109;28;20039;-81
2021/11/29 05:14:49;;;;;;;10.32;6.35;;;;;;;;;;5012925;28;20053;-81
2021/11/29 05:17:16;;;;;;;11.85;6.60;;;;;;;;;;5007567;28;20038;-81
2021/11/29 05:19:42;;;;;;;11.40;6.40;;;;;;;;;;5003278;28;20025;-80
2021/11/29 05:22:08;;;;;;;10.75;6.50;;;;;;;;;;5010094;28;20033;-79
2021/11/29 05:24:34;;;;;;;12.18;5.88;;;;;;;;;;5000177;28;20030;-81
2021/11/29 05:27:01;;;;;;;10.82;6.00;;;;;;;;;;5014283;28;20030;-81
2021/11/29 05:29:27;;;;;;;9.30;5.63;;;;;;;;;;5016026;28;20059;-81
2021/11/29 05:31:53;;;;;;;11.82;5.78;;;;;;;;;;5017418;28;20031;-82
2021/11/29 05:34:19;;;;;;;11.77;5.50;;;;;;;;;;5026859;28;20036;-81
2021/11/29 05:36:45;;;;;;;11.18;5.90;;;;;;;;;;5016187;28;20046;-81
2021/11/29 05:39:14;;;;;;;10.85;6.00;;;;;;;;;;5007858;28;20027;-82
2021/11/29 05:41:40;;;;;;;11.15;6.30;;;;;;;;;;5016410;28;20018;-81
2021/11/29 05:44:06;;;;;;;10.55;6.50;;;;;;;;;;4999388;28;20037;-81
2021/11/29 05:46:32;;;;;;;11.55;6.40;;;;;;;;;;4993125;28;20033;-82
2021/11/29 05:48:58;;;;;;;10.27;5.80;;;;;;;;;;4993990;28;20049;-81
2021/11/29 05:51:24;;;;;;;11.63;5.78;;;;;;;;;;4983735;28;20484;-79
2021/11/29 05:53:51;;;;;;;12.45;7.15;;;;;;;;;;4993910;28;20047;-81
2021/11/29 05:56:17;;;;;;;11.20;6.57;;;;;;;;;;5012662;28;20488;-81
2021/11/29 05:58:43;;;;;;;11.70;6.10;;;;;;;;;;5013537;28;20101;-80
2021/11/29 06:01:09;;;;;;;9.32;5.43;;;;;;;;;;5000164;28;20026;-81
2021/11/29 06:03:35;;;;;;;9.75;5.88;;;;;;;;;;5001275;28;20100;-82
2021/11/29 06:06:01;;;;;;;10.75;5.93;;;;;;;;;;4992869;28;20400;-82
2021/11/29 06:08:27;;;;;;;10.32;6.00;;;;;;;;;;4996617;28;20030;-82
2021/11/29 06:10:54;;;;;;;10.02;5.88;;;;;;;;;;4990332;28;20130;-81
2021/11/29 06:13:21;;;;;;;11.90;6.70;;;;;;;;;;5008020;28;20070;-82
2021/11/29 06:15:47;;;;;;;11.63;6.47;;;;;;;;;;5011381;28;20018;-82
2021/11/29 06:18:13;;;;;;;11.57;5.78;;;;;;;;;;5002887;28;20049;-83
2021/11/29 06:20:40;;;;;;;13.18;6.93;;;;;;;;;;5014084;28;20033;-82
2021/11/29 06:23:06;;;;;;;11.93;6.38;;;;;;;;;;5005744;28;20080;-81
2021/11/29 06:25:32;;;;;;;10.45;5.60;;;;;;;;;;5007024;28;20460;-83
2021/11/29 06:27:58;;;;;;;13.05;6.38;;;;;;;;;;5005418;28;20372;-82
2021/11/29 06:30:25;;;;;;;11.88;6.20;;;;;;;;;;4996596;28;20041;-83
2021/11/29 06:32:52;;;;;;;8.68;5.03;;;;;;;;;;5009696;28;20034;-81
2021/11/29 06:35:18;;;;;;;12.20;6.18;;;;;;;;;;4995058;28;20068;-81
2021/11/29 06:37:46;;;;;;;11.98;5.05;;;;;;;;;;5004865;28;20026;-82
2021/11/29 06:40:13;;;;;;;10.23;6.57;;;;;;;;;;4997677;28;20091;-81
2021/11/29 06:42:39;;;;;;;9.63;5.65;;;;;;;;;;4993694;28;20022;-83
2021/11/29 06:45:05;;;;;;;9.88;5.18;;;;;;;;;;5000405;28;20114;-82
2021/11/29 06:47:31;;;;;;;10.27;5.95;;;;;;;;;;5001572;28;20029;-80
2021/11/29 06:49:57;;;;;;;10.95;6.25;;;;;;;;;;5012210;28;20030;-82
2021/11/29 06:52:23;;;;;;;10.00;5.60;;;;;;;;;;4997472;28;20061;-81
2021/11/29 06:54:50;;;;;;;10.57;5.25;;;;;;;;;;5007572;28;20034;-82
2021/11/29 06:57:17;;;;;;;12.60;6.93;;;;;;;;;;5011032;28;20026;-82
2021/11/29 06:59:44;;;;;;;10.38;6.15;;;;;;;;;;5009501;28;20019;-82
2021/11/29 07:02:10;;;;;;;12.02;6.95;;;;;;;;;;5003873;28;20445;-82
2021/11/29 07:04:36;;;;;;;11.07;6.53;;;;;;;;;;4978304;28;20165;-81
2021/11/29 07:07:03;;;;;;;18.00;8.32;;;;;;;;;;4977788;28;20038;-82
2021/11/29 07:09:29;;;;;;;14.55;8.05;;;;;;;;;;4982682;28;20396;-82
2021/11/29 07:11:55;;;;;;;12.80;6.82;;;;;;;;;;4988283;28;20124;-82
2021/11/29 07:14:21;;;;;;;12.95;7.40;;;;;;;;;;4995764;28;20022;-81
2021/11/29 07:28:43;;;;;;;12.18;6.00;;;;;;;;;;4191732;28;20066;-75
2021/11/29 07:31:09;;;;;;;12.32;6.45;;;;;;;;;;4973802;28;20035;-77
2021/11/29 07:33:35;;;;;;;12.63;6.28;;;;;;;;;;4988991;28;20078;-77
2021/11/29 07:36:01;;;;;;;14.77;6.93;;;;;;;;;;4973783;28;20026;-76
2021/11/29 07:38:28;;;;;;;11.75;5.82;;;;;;;;;;4974377;28;20023;-77
2021/11/29 07:40:55;;;;;;;11.50;6.68;;;;;;;;;;4973859;28;20030;-77
2021/11/29 07:43:21;;;;;;;11.25;6.32;;;;;;;;;;4988630;28;20030;-77
2021/11/29 07:45:47;;;;;;;12.07;6.47;;;;;;;;;;4973766;28;20507;-76
2021/11/29 07:48:13;;;;;;;10.05;5.80;;;;;;;;;;4973579;28;20035;-76
2021/11/29 07:50:39;;;;;;;13.95;6.57;;;;;;;;;;4973573;28;20034;-76
2021/11/29 07:53:05;;;;;;;11.50;6.55;;;;;;;;;;4988714;28;20030;-77
2021/11/29 07:55:32;;;;;;;10.05;6.03;;;;;;;;;;4987482;28;20026;-77
2021/11/29 07:57:59;;;;;;;10.30;5.95;;;;;;;;;;4973193;28;20022;-76
2021/11/29 08:00:26;;;;;;;10.52;6.07;;;;;;;;;;4973057;28;20019;-76
2021/11/29 08:02:53;;;;;;;10.73;6.10;;;;;;;;;;4972901;28;20038;-77
2021/11/29 08:05:21;;;;;;;14.75;6.22;;;;;;;;;;4973258;28;20037;-76
2021/11/29 08:07:47;;;;;;;11.05;6.65;;;;;;;;;;4972911;28;20118;-77
2021/11/29 08:10:13;;;;;;;11.35;6.20;;;;;;;;;;4973176;28;20073;-77
2021/11/29 08:12:39;;;;;;;12.52;7.68;;;;;;;;;;4972733;28;20035;-76
2021/11/29 08:15:06;;;;;;;10.95;6.07;;;;;;;;;;4972287;28;20543;-77
2021/11/29 08:17:32;;;;;;;12.07;6.68;;;;;;;;;;4972913;28;20014;-77
2021/11/29 08:19:58;;;;;;;11.30;5.88;;;;;;;;;;4972984;28;20067;-77
2021/11/29 08:22:24;;;;;;;16.48;6.78;;;;;;;;;;4972749;28;20050;-77
2021/11/29 08:24:50;;;;;;;12.30;6.60;;;;;;;;;;4972623;28;20039;-77
2021/11/29 08:27:16;;;;;;;11.25;6.53;;;;;;;;;;4971797;28;20124;-77
2021/11/29 08:29:43;;;;;;;13.13;7.03;;;;;;;;;;4971785;28;20283;-76
2021/11/29 08:32:09;;;;;;;11.35;5.63;;;;;;;;;;4972122;28;20488;-77
2021/11/29 08:34:38;;;;;;;9.93;6.22;;;;;;;;;;5003287;28;20054;-77
2021/11/29 08:37:04;;;;;;;11.45;5.82;;;;;;;;;;4972711;28;20022;-77
2021/11/29 08:39:30;;;;;;;15.57;6.72;;;;;;;;;;4972584;28;20105;-76
2021/11/29 08:41:56;;;;;;;10.48;5.82;;;;;;;;;;4971940;28;20085;-77
2021/11/29 08:44:23;;;;;;;10.70;6.03;;;;;;;;;;4972008;28;20485;-77
2021/11/29 08:46:49;;;;;;;19.17;7.43;;;;;;;;;;4972592;28;20492;-77
2021/11/29 08:49:15;;;;;;;17.90;7.53;;;;;;;;;;4973044;28;20022;-77
2021/11/29 08:51:42;;;;;;;12.63;6.53;;;;;;;;;;4971742;28;20031;-77
2021/11/29 08:54:09;;;;;;;13.00;7.35;;;;;;;;;;4972218;28;20051;-78
2021/11/29 08:56:35;;;;;;;11.00;6.40;;;;;;;;;;4971770;28;20136;-77
2021/11/29 08:59:01;;;;;;;11.45;6.70;;;;;;;;;;4972195;28;20058;-77
2021/11/29 09:01:27;;;;;;;17.48;7.53;;;;;;;;;;4972019;28;20388;-77
2021/11/29 09:03:53;;;;;;;15.20;6.93;;;;;;;;;;4972173;28;20412;-78
2021/11/29 09:06:20;;;;;;;14.38;7.07;;;;;;;;;;4972206;28;20042;-78
2021/11/29 09:08:46;;;;;;;14.45;7.50;;;;;;;;;;4972439;28;20112;-77
2021/11/29 09:11:13;;;;;;;11.05;6.55;;;;;;;;;;4971801;28;20034;-77
2021/11/29 09:13:40;;;;;;;12.25;6.70;;;;;;;;;;4972206;28;20061;-78
2021/11/29 09:16:07;;;;;;;12.73;6.72;;;;;;;;;;4972447;28;20154;-77
2021/11/29 09:18:33;;;;;;;14.32;6.72;;;;;;;;;;4972818;28;20023;-77
2021/11/29 09:20:59;;;;;;;12.90;7.25;;;;;;;;;;4971806;28;20027;-78
2021/11/29 09:23:26;;;;;;;10.70;6.47;;;;;;;;;;4971794;28;20070;-77
2021/11/29 09:25:54;;;;;;;11.70;6.70;;;;;;;;;;4972753;28;20058;-77
2021/11/29 09:28:21;;;;;;;13.50;6.97;;;;;;;;;;4972399;28;20046;-78
2021/11/29 09:30:47;;;;;;;12.38;6.82;;;;;;;;;;4972290;28;20496;-78
2021/11/29 09:33:14;;;;;;;13.35;8.13;;;;;;;;;;5002289;28;20058;-77
2021/11/29 09:35:40;;;;;;;13.23;6.90;;;;;;;;;;4972423;28;20022;-78
2021/11/29 09:38:06;;;;;;;11.70;7.18;;;;;;;;;;4972226;28;20069;-77
2021/11/29 09:40:35;;;;;;;15.13;6.88;;;;;;;;;;5003439;28;20022;-78
2021/11/29 09:43:05;;;;;;;13.05;7.35;;;;;;;;;;4971615;28;20035;-78
2021/11/29 09:54:42;;;;;;;;;;;;;;;;;;4976557;28;20030;-79
2021/11/29 09:57:08;;;;;;;14.65;7.90;;;;;;;;;;4975851;28;19989;-77
2021/11/29 09:59:34;;;;;;;13.65;7.32;;;;;;;;;;4975297;28;20023;-78
2021/11/29 10:02:00;;;;;;;13.70;7.75;;;;;;;;;;4976352;28;20101;-78
2021/11/29 10:04:26;;;;;;;12.85;7.13;;;;;;;;;;5006572;28;20484;-77
2021/11/29 10:06:53;;;;;;;11.85;8.00;;;;;;;;;;4975736;28;20054;-79
2021/11/29 10:09:28;;;;;;;11.98;7.00;;;;;;;;;;4975753;28;20046;-78
2021/11/29 10:12:00;;;;;;;11.80;6.85;;;;;;;;;;4974978;28;20065;-78
2021/11/29 10:14:26;;;;;;;12.40;6.77;;;;;;;;;;4975701;28;20022;-78
2021/11/29 10:17:00;;;;;;;12.35;6.90;;;;;;;;;;4975914;28;20080;-78
2021/11/29 10:19:26;;;;;;;13.73;7.68;;;;;;;;;;4975043;28;20102;-77
2021/11/29 10:21:52;;;;;;;14.32;7.63;;;;;;;;;;4990344;28;20507;-78
2021/11/29 10:24:19;;;;;;;13.75;7.32;;;;;;;;;;4974438;28;20046;-77
2021/11/29 10:26:52;;;;;;;11.82;6.85;;;;;;;;;;4966275;28;20038;-77
2021/11/29 10:32:31;;;;;;;12.23;6.60;;;;;;;;;;4975051;28;20049;-77
2021/11/29 10:34:57;;;;;;;11.65;7.43;;;;;;;;;;4974537;28;20026;-76
2021/11/29 10:37:27;;;;;;;15.52;7.57;;;;;;;;;;4974669;28;20015;-79
2021/11/29 10:39:53;;;;;;;13.50;7.55;;;;;;;;;;4973895;28;20084;-77
2021/11/29 10:42:24;;;;;;;11.65;7.15;;;;;;;;;;4974842;28;20062;-78
2021/11/29 10:44:53;;;;;;;12.15;7.18;;;;;;;;;;4975635;28;20038;-77
2021/11/29 10:47:20;;;;;;;9.75;6.22;;;;;;;;;;4974931;28;20027;-78
2021/11/29 10:49:48;;;;;;;11.45;6.47;;;;;;;;;;4974700;28;20026;-78
2021/11/29 10:52:34;;;;;;;10.40;6.07;;;;;;;;;;4974232;28;20034;-77
2021/11/29 10:55:00;;;;;;;12.65;6.53;;;;;;;;;;4974551;28;20027;-78
2021/11/29 10:57:27;;;;;;;10.30;6.32;;;;;;;;;;4973416;28;20026;-77
2021/11/29 10:59:54;;;;;;;9.73;6.25;;;;;;;;;;4974482;28;20031;-77
2021/11/29 11:02:21;;;;;;;11.60;6.50;;;;;;;;;;4974506;28;20034;-77
2021/11/29 11:04:48;;;;;;;17.40;7.40;;;;;;;;;;5005260;28;20054;-77
2021/11/29 11:07:26;;;;;;;14.43;6.80;;;;;;;;;;4973734;28;20117;-77
2021/11/29 11:09:56;;;;;;;12.00;6.65;;;;;;;;;;4989013;28;20035;-78
2021/11/29 11:15:25;;;;;;;;;;;;;;;;;;4974730;28;20034;-77
2021/11/29 11:17:53;;;;;;;11.30;6.53;;;;;;;;;;4973465;28;19902;-77
2021/11/29 11:20:19;;;;;;;11.70;6.55;;;;;;;;;;4973593;28;20034;-77
2021/11/29 11:22:46;;;;;;;11.82;6.47;;;;;;;;;;4973908;28;20038;-76
2021/11/29 11:25:14;;;;;;;11.52;6.72;;;;;;;;;;4973933;28;20030;-77
2021/11/29 11:27:41;;;;;;;10.77;5.88;;;;;;;;;;4988649;28;20118;-77
2021/11/29 11:30:07;;;;;;;10.13;5.63;;;;;;;;;;4973257;28;20066;-77
2021/11/29 11:32:36;;;;;;;11.55;6.30;;;;;;;;;;4973296;28;20106;-78
2021/11/29 11:35:14;;;;;;;9.75;6.28;;;;;;;;;;4973468;28;20392;-77
2021/11/29 11:37:44;;;;;;;10.90;6.63;;;;;;;;;;4973615;28;20018;-77
2021/11/29 11:40:15;;;;;;;23.38;8.82;;;;;;;;;;4973464;28;20027;-77
2021/11/29 11:42:41;;;;;;;10.52;6.75;;;;;;;;;;4973898;28;20161;-78
2021/11/29 11:45:09;;;;;;;12.82;6.97;;;;;;;;;;5005202;28;20038;-77
2021/11/29 11:47:35;;;;;;;11.43;6.43;;;;;;;;;;4973530;28;20030;-77
2021/11/29 11:50:01;;;;;;;10.68;6.88;;;;;;;;;;4973154;28;20060;-76
2021/11/29 11:52:27;;;;;;;11.25;7.15;;;;;;;;;;5004363;28;20030;-77
2021/11/29 11:54:57;;;;;;;10.98;6.15;;;;;;;;;;4973856;28;20046;-77
2021/11/29 11:57:24;;;;;;;9.88;5.80;;;;;;;;;;4973276;28;20472;-77
2021/11/29 11:59:50;;;;;;;12.25;7.00;;;;;;;;;;4972721;28;20118;-77
2021/11/29 12:02:18;;;;;;;10.70;6.38;;;;;;;;;;4973158;28;20102;-78
2021/11/29 12:05:04;;;;;;;10.82;6.18;;;;;;;;;;4991276;28;20038;-76
2021/11/29 12:07:34;;;;;;;11.13;5.53;;;;;;;;;;4977368;28;20504;-77
2021/11/29 12:10:20;;;;;;;9.20;5.13;;;;;;;;;;4986803;28;20467;-79
2021/11/29 12:12:58;;;;;;;10.50;5.75;;;;;;;;;;4973091;28;20050;-78
2021/11/29 12:15:36;;;;;;;9.60;5.32;;;;;;;;;;4973037;28;20023;-77
2021/11/29 12:18:03;;;;;;;9.65;5.00;;;;;;;;;;4972760;28;20026;-77
2021/11/29 12:20:29;;;;;;;12.50;5.03;;;;;;;;;;4974143;28;20113;-77
2021/11/29 12:22:55;;;;;;;8.18;4.75;;;;;;;;;;4975647;28;20058;-78
2021/11/29 12:25:24;;;;;;;12.65;5.15;;;;;;;;;;4974968;28;20110;-79
2021/11/29 12:27:59;;;;;;;11.30;5.38;;;;;;;;;;4975902;28;20085;-79
2021/11/29 12:30:34;;;;;;;8.98;5.05;;;;;;;;;;4971659;28;20037;-80
2021/11/29 12:33:02;;;;;;;10.15;4.60;;;;;;;;;;4975110;28;20037;-79
2021/11/29 12:35:39;;;;;;;11.30;5.00;;;;;;;;;;4974705;28;20110;-78
2021/11/29 12:38:07;;;;;;;7.78;4.13;;;;;;;;;;4975790;28;20068;-78
2021/11/29 12:40:44;;;;;;;7.13;4.47;;;;;;;;;;4975652;28;20026;-79
2021/11/29 12:43:10;;;;;;;7.68;4.30;;;;;;;;;;5005431;28;20034;-78
2021/11/29 12:45:36;;;;;;;8.20;4.15;;;;;;;;;;4973943;28;20086;-78
2021/11/29 12:48:09;;;;;;;7.40;4.00;;;;;;;;;;5005841;28;20125;-77
2021/11/29 12:50:49;;;;;;;7.20;4.03;;;;;;;;;;4974418;28;20054;-78
2021/11/29 12:53:17;;;;;;;8.35;4.38;;;;;;;;;;4974700;28;20126;-78
2021/11/29 12:55:44;;;;;;;7.13;4.22;;;;;;;;;;4975635;28;20019;-77
2021/11/29 12:58:10;;;;;;;8.73;3.97;;;;;;;;;;4973403;28;20058;-77
2021/11/29 13:00:38;;;;;;;8.68;4.35;;;;;;;;;;4973644;28;20031;-78
2021/11/29 13:03:05;;;;;;;8.15;4.40;;;;;;;;;;4974684;28;20050;-79
2021/11/29 13:05:31;;;;;;;6.75;4.20;;;;;;;;;;4974740;28;20063;-78
2021/11/29 13:08:06;;;;;;;8.10;4.60;;;;;;;;;;4974845;28;20035;-80
2021/11/29 13:10:50;;;;;;;7.95;4.70;;;;;;;;;;4989225;28;20027;-78
2021/11/29 13:13:26;;;;;;;14.43;4.78;;;;;;;;;;4988578;28;20026;-78
2021/11/29 13:15:53;;;;;;;9.10;4.45;;;;;;;;;;4990002;28;20054;-79
2021/11/29 13:18:37;;;;;;;7.85;4.72;;;;;;;;;;4973514;28;20023;-78
2021/11/29 13:21:04;;;;;;;10.68;5.40;;;;;;;;;;4976870;28;20030;-78
2021/11/29 13:23:30;;;;;;;12.80;5.88;;;;;;;;;;4979010;28;20030;-78
2021/11/29 13:26:03;;;;;;;7.25;4.57;;;;;;;;;;4978273;28;20015;-78
2021/11/29 13:28:29;;;;;;;11.02;5.55;;;;;;;;;;4977822;28;20485;-78
2021/11/29 13:30:55;;;;;;;8.48;4.82;;;;;;;;;;4978109;28;20042;-78
2021/11/29 13:33:22;;;;;;;9.43;5.28;;;;;;;;;;4979543;28;20078;-79
2021/11/29 13:35:48;;;;;;;8.45;4.90;;;;;;;;;;4978002;28;20113;-78
2021/11/29 13:38:14;;;;;;;9.75;5.38;;;;;;;;;;4978281;28;20027;-77
2021/11/29 13:40:41;;;;;;;8.32;5.20;;;;;;;;;;4976394;28;20022;-77
2021/11/29 13:43:07;;;;;;;9.13;4.82;;;;;;;;;;4992261;28;20027;-77
2021/11/29 13:45:34;;;;;;;9.57;5.00;;;;;;;;;;4977688;28;20027;-78
2021/11/29 13:48:04;;;;;;;9.05;5.32;;;;;;;;;;4976850;28;20045;-77
2021/11/29 13:50:31;;;;;;;10.48;5.97;;;;;;;;;;4976311;28;20504;-78
2021/11/29 13:53:00;;;;;;;9.35;5.18;;;;;;;;;;4977198;28;20031;-78
2021/11/29 13:55:31;;;;;;;9.18;5.25;;;;;;;;;;4977988;28;20018;-78
2021/11/29 13:58:05;;;;;;;9.38;5.07;;;;;;;;;;4977023;28;20059;-78
2021/11/29 14:00:41;;;;;;;10.88;5.90;;;;;;;;;;4977459;28;20492;-77
2021/11/29 14:03:25;;;;;;;14.65;6.78;;;;;;;;;;4976745;28;20022;-78
2021/11/29 14:05:53;;;;;;;10.93;6.03;;;;;;;;;;4976079;28;20523;-77
2021/11/29 14:08:21;;;;;;;12.63;5.97;;;;;;;;;;4976951;28;20100;-78
2021/11/29 14:10:48;;;;;;;10.65;5.75;;;;;;;;;;4976485;28;20023;-78
2021/11/29 14:13:15;;;;;;;13.05;6.10;;;;;;;;;;4976889;28;20066;-78
2021/11/29 14:16:12;;;;;;;10.45;6.55;;;;;;;;;;4977163;28;20985;-78
2021/11/29 14:18:43;;;;;;;11.02;5.95;;;;;;;;;;4913412;29;20042;-78
2021/11/29 14:21:14;;;;;;;13.55;6.65;;;;;;;;;;4916328;29;20477;-78
2021/11/29 14:23:54;;;;;;;10.48;5.90;;;;;;;;;;4916609;29;20044;-78
2021/11/29 14:26:30;;;;;;;14.48;7.10;;;;;;;;;;4915270;29;20036;-78
2021/11/29 14:28:56;;;;;;;9.68;5.60;;;;;;;;;;4915630;29;20060;-78
2021/11/29 14:31:22;;;;;;;9.77;6.28;;;;;;;;;;4914349;29;20028;-78
2021/11/29 14:33:49;;;;;;;11.25;6.15;;;;;;;;;;4915130;29;20410;-78
2021/11/29 14:36:27;;;;;;;12.38;7.28;;;;;;;;;;4915042;29;20063;-77
2021/11/29 14:38:53;;;;;;;12.40;7.22;;;;;;;;;;4914955;29;20332;-78
2021/11/29 14:41:20;;;;;;;12.82;7.30;;;;;;;;;;4915438;29;20036;-78
2021/11/29 14:43:49;;;;;;;9.82;5.85;;;;;;;;;;4915109;29;20031;-79
2021/11/29 14:55:27;;;;;;;9.13;5.05;;;;;;;;;;4935694;29;20406;-77
2021/11/29 14:57:54;;;;;;;9.25;5.38;;;;;;;;;;4955162;29;20480;-77
2021/11/29 15:00:22;;;;;;;11.63;6.07;;;;;;;;;;4972407;28;20080;-77
2021/11/29 15:11:58;;;;;;;12.57;7.38;;;;;;;;;;4952818;28;20160;-78
2021/11/29 15:14:25;;;;;;;12.75;7.47;;;;;;;;;;4952175;29;20043;-77
2021/11/29 15:16:52;;;;;;;12.73;7.88;;;;;;;;;;4952319;28;20032;-77
2021/11/29 15:19:30;;;;;;;12.02;6.95;;;;;;;;;;4952226;29;20019;-78
2021/11/29 15:22:10;;;;;;;11.52;6.78;;;;;;;;;;4952514;28;20070;-77